Extreme weather reports worldwide

Low visibility

Station
 
Location
 
Name
 
Wind
Knots
Gust
Knots
Vis
SM
Temp/Dew
C
Baro
inHg
METAR
 
LIVP 0 0 7/7 29.97 LIVP 232155Z 00000KT 0000 -RA FG VV/// 07/07 Q1015 RMK MON INVIS VAL INVIS VIS MIN 0000
KMWN 43 54 0 5/5 KMWN 232152Z 29043G54KT 0SM FG VV000 05/05 RMK
KLR ESMQ SE Kalmar Airport 3 0.03 10/10 29.62 ESMQ 232250Z AUTO 17003KT 0050 R16/0175N R34/0600D FG VV000 10/10 Q1003
ORB ESOE Örebro, SE Örebro Airport 0 0.06 9/8 29.53 ESOE 232250Z AUTO 00000KT 0100 R01/P2000N R19/P2000N NCD 09/08 Q1000
VST ESOW Stockholm / Västerås, SE Stockholm Västerås Airport 1 0.09 8/7 29.56 ESOW 232250Z AUTO 36001KT 0150 R01///// R19/0450N FG NCD 08/07 Q1001

Station
 
Location
 
Name
 
Wind
Knots
Gust
Knots
Vis
SM
Temp/Dew
C
Baro
inHg
METAR
 
ASF URWA Astrakhan, RU Astrakhan Airport 0 0.09 11/9 30.09 URWA 232230Z 00000MPS 0150 0100NE R27/0550U FG VV002 11/09 Q1019 R27/010070 NOSIG RMK OBST OBSC QFE766/1021
BMA ESSB Stockholm, SE Stockholm-Bromma Airport 3 0.12 10/10 29.59 ESSB 232250Z AUTO 14003KT 0200 R12/1100N R30/P1500N BCFG NCD 10/10 Q1002
SJW ZBSJ Shijiazhuang, CN Shijiazhuang Daguocun International Airport 2 0.12 16/16 30.03 ZBSJ 232200Z VRB01MPS 0200 R33/0500D FG VV006 16/16 Q1017 NOSIG
UTI EFUT Utti / Valkeala, FI Utti Air Base 5 0.22 12/12 29.70 EFUT 232250Z AUTO 18005KT 0350 R25/0400 FG FEW020 12/12 Q1006
KSMP 0 0.25 10/8 29.86 KSMP 232250Z AUTO 00000KT 1/4SM RA FG VV007 10/09 A2986 RMK AO2 P0017 T01000089
KQEN 4 0.25 12/14 KQEN 232250Z AUTO 03004KT M0400 RA CLR 12/14 / RMK A02 TSNO
JYV EFJY Jyväskylän Maalaiskunta, FI Jyvaskyla Airport 2 0.25 7/7 29.65 EFJY 232250Z AUTO VRB02KT 0400 R12/0450 -SHRA FEW009 07/07 Q1004
ETIC DE Grafenwohr Army Air Field 0 0.25 12/12 29.76 ETIC 232241Z AUTO 00000KT 0400 R32/0300V0550 FG VV000 12/12 A2976 RMK AO2 SLP075 $
YRF CYCA Cartwright, CA Cartwright Airport 4 0.25 9/8 29.22 CYCA 232202Z AUTO 01004KT 1/4SM FG BKN003 BKN028 OVC035 09/08 A2922 RMK PRESFR SLP896 DENSITY ALT 100FT
VNT EVVA Ventspils, LV Ventspils International Airport 0 0.28 12/11 29.68 EVVA 232250Z AUTO 00000KT 0450 FG NSC 12/11 Q1005
PZY LZPP Piešťany, SK Piešťany Airport 1 0.28 15/14 29.76 LZPP 232230Z AUTO VRB01KT 0450 R01/P2000N FG BKN110/// 15/14 Q1008
CRK RPLC Angeles/Mabalacat, PH Diosdado Macapagal International Airport 2 0.31 24/24 29.82 RPLC 232225Z 09002KT 0500 FG BKN020 OVC100 24/24 Q1010 NOSIG RMK A2983
LNZ LOWL Linz, AT Linz Hörsching Airport 4 0.34 14/14 29.79 LOWL 232250Z AUTO 27004KT 0550 R26/0650N FG SCT001 14/14 Q1009
MJZ UERR Mirny, RU Mirny Airport 6 0.43 3/-3 30.24 UERR 232230Z 07003MPS 0700 HZ VV003 03/M03 Q1024 R25/250337 TEMPO 0400 HZ VV002 RMK QBB100 QFE737/0982
KID ESMK Kristianstad, SE Kristianstad Airport 3 0.5 9/9 29.59 ESMK 232250Z AUTO 16003KT 0800 R01/P2000N R19/P2000N BCFG NCD 09/09 Q1002
MIK EFMI Mikkeli, FI Mikkeli Airport 0 0.56 9/9 29.68 EFMI 232250Z AUTO 00000KT 0900 BCFG SKC 09/09 Q1005
ABA UNAA Abakan, RU Abakan Airport 4 0.62 1/0 29.85 UNAA 232230Z 31002MPS 1000 0600W PRFG NSC 01/00 Q1011 R20/290055 TEMPO 0300 FG VV002 RMK QFE736
YMH CYMH Mary's Harbour, CA Mary's Harbour Airport 7 0.63 12/12 29.20 CYMH 232200Z AUTO 12007KT 5/8SM BR VV002 12/12 A2920 RMK SLP891 DENSITY ALT 500FT
KORK North Little Rock, US North Little Rock Municipal Airport 13 0.75 15/14 29.96 KORK 232235Z AUTO 04013KT 3/4SM BR OVC004 15/14 A2996 RMK AO2
WUH ZHHH Wuhan, CN Wuhan Tianhe International Airport 4 0.75 18/17 30.00 ZHHH 232200Z 03002MPS 1200 R04R/P2000 BR PRFG NSC 18/17 Q1016 BECMG TL2310 0700 FG
YKS UEEE Yakutsk, RU Yakutsk Airport 4 0.87 -2/-3 30.30 UEEE 232230Z 31002MPS 1400 1300NE R23L/1300N BR NSC M02/M03 Q1026 R23L/09//60 NOSIG RMK QFE761
NAG VANP Nagpur, IN Dr. Babasaheb Ambedkar International Airport 4 0.93 / 29.65 VANP 232200Z 22004KT 1500 BR SCT018 BKN080 26/254Q1004 NOSIG
KSUZ Benton, US Saline County Regional Airport 11 1 16/16 29.95 KSUZ 232235Z AUTO 03011KT 1SM BR OVC006 16/16 A2995 RMK A01
YYH CYYH Taloyoak, CA Taloyoak Airport 9 1 3/2 29.87 CYYH 232200Z 15009KT 1SM -DZ BR OVC007 03/02 A2987 RMK FG4ST4 VIS N 1/2 AND SW 4 SLP117
YCB CYCB Cambridge Bay, CA Cambridge Bay Airport 9 1 0/0 29.86 CYCB 232200Z 04009KT 1SM BR BKN003 00/M00 A2986 RMK FG1ST6 VIS VRB 3/4-11/4 VIA CYHZ SLP116
KLF UUBC Kaluga, RU Grabtsevo Airport 0 1.06 10/9 30.03 UUBC 232200Z AUTO 00000MPS 1700 // NCD 10/09 Q1017 RMK QFE745/0993
BOM VABB Mumbai, IN Chhatrapati Shivaji International Airport 3 1.12 25/25 29.65 VABB 232230Z 11003KT 1800 HZ SCT018 FEW025TCU OVC090 25/25 Q1004 NOSIG
CGQ ZYCC Changchun, CN Longjia Airport 2 1.12 10/8 30.09 ZYCC 232200Z VRB01MPS 1800 BR NSC 10/08 Q1019 BECMG TL2330 3000
KLU LOWK Klagenfurt am Wörthersee, AT Klagenfurt Airport 1 1.24 13/13 29.85 LOWK 232250Z AUTO VRB01KT 2000 0650E R10/P1500D R28/0900N BCFG FEW001 BKN014 13/13 Q1011
TSN ZBTJ Tianjin, CN Tianjin Binhai International Airport 2 1.24 17/16 30.03 ZBTJ 232230Z 34001MPS 2000 BR SCT020 OVC036 17/16 Q1017 NOSIG
CGO ZHCC Zhengzhou, CN Zhengzhou Xinzheng International Airport 2 1.24 15/15 30.00 ZHCC 232200Z VRB01MPS 2000 BR NSC 15/15 Q1016 NOSIG
PAT VEPT Patna, IN Lok Nayak Jayaprakash Airport 5 1.24 24/23 29.59 VEPT 232200Z 12005KT 2000 - RA SCT015 FEW030CB BKN090 24/23 Q1002 NOSIG
VEBN 4 1.24 26/25 29.53 VEBN 232200Z 09004KT 2000 BR BKN020 FEW030CB OVC080 26/25 Q1000 NOSIG
UTO8 1.25 / UTO8 M M M 192/-10/-15/2620/M/ PK WND 2623 2142Z 2007 50MM
YRB CYRB Resolute Bay, CA Resolute Bay Airport 12 1.25 -1/-2 29.87 CYRB 232200Z 13012KT 1 1/4SM -SN BR SCT003 BKN020 OVC070 M01/M02 A2987 RMK ST3SC4AC1 SLP123
TRF ENTO Torp, NO Sandefjord Airport, Torp 6 1.3 14/14 29.41 ENTO 232250Z AUTO 15006KT 2100 -DZ OVC002/// 14/14 Q0996
ZIA UUBW Moscow, RU Zhukovsky International Airport 2 1.37 9/9 30.03 UUBW 232230Z 08001MPS 2200 0100SE FG FEW002 09/09 Q1017 R30/010060 TEMPO 0300 FG RMK QBB080
ETIH DE Hohenfels Army Air Field 0 1.49 13/13 29.79 ETIH 232251Z AUTO 00000KT 2400 BR BKN003 13/13 A2979 RMK AO2 VIS 0400V2400 SLP085 $
NKG ZSNJ Nanjing, CN Nanjing Lukou Airport 2 1.49 19/19 29.97 ZSNJ 232200Z VRB01MPS 2400 BR NSC 19/19 Q1015 NOSIG
DXE KMBO Madison, US Bruce Campbell Field 4 1.5 21/21 29.84 KMBO 232255Z AUTO 19004KT 1 1/2SM +RA OVC008 21/21 A2984 RMK AO2
KLS KKLS Kelso, US Southwest Washington Regional Airport 3 1.5 16/16 29.78 KKLS 232254Z AUTO 09003KT 1 1/2SM +RA BR FEW014 SCT019 OVC025 16/16 A2978 RMK AO2
LIT KLIT Little Rock, US Bill & Hillary Clinton National Airport/Adams Field 9 1.5 15/15 29.96 KLIT 232253Z 04009KT 1 1/2SM -DZ BR OVC005 16/15 A2996 RMK AO2 SLP147 P0002 T01560150
HUA KHUA Redstone Arsnl Huntsville, US Redstone Army Air Field 7 1.5 14/13 30.07 KHUA 232248Z AUTO 03007KT 1 1/2SM +RA BR FEW003 SCT007 SCT023 OVC070 14/13 A3007 RMK AO2 VIS 1 1/2V4 SLP182
OTK KTMK Tillamook, US Tillamook Airport 20 35 1.5 16/15 29.80 KTMK 232235Z AUTO 21020G35KT 1 1/2SM RA BKN011 BKN019 OVC029 16/15 A2980 RMK AO2 P0023
YYR CYYR Goose Bay, CA Goose Bay Airport 2 1.5 10/10 29.24 CYYR 232230Z CCA 10002KT 1 1/2SM -RA BR BKN004 OVC010 10/10 A2924 RMK SF5SF3 SLP903